HTIR/IRI METAR and TAF weather

Enter ICAO airport designator
Station Type Date Time Source
HTIR METAR 2020/04/06 09:00 UTC NOAA

HTIR 060900Z 33012KT 9999 SCT024 FEW026CB 26/18 Q1021


Station Type Date Time Source
HTIR Decoded METAR 2020/04/06 09:00 UTC NOAA

Iringa, Tanzania (HTIR) 07-40S 035-45E 1428M
Apr 06, 2020 - 05:00 AM EDT / 2020.04.06 0900 UTC
Wind: from the NNW (330 degrees) at 14 MPH (12 KT):0
Visibility: greater than 7 mile(s):0
Sky conditions: partly cloudy
Weather: Cumulonimbus clouds observed
Temperature: 78 F (26 C)
Dew Point: 64 F (18 C)
Relative Humidity: 61%
Pressure (altimeter): 30.15 in. Hg (1021 hPa)
ob: HTIR 060900Z 33012KT 9999 SCT024 FEW026CB 26/18 Q1021
cycle: 9

Station Type Date Time Source
HTIR TAF UTC NOAA

Error!

Example: see airport list